createdAt,value
2022-08-20T05:37:15.295Z,18.50
2022-08-20T05:39:42.495Z,18.65
2022-08-20T05:42:09.054Z,18.79
2022-08-20T05:44:38.187Z,18.91
2022-08-20T05:47:07.127Z,18.84
2022-08-20T05:49:35.120Z,18.89
2022-08-20T05:52:01.817Z,18.98
2022-08-20T05:54:28.423Z,19.25
2022-08-20T05:56:55.376Z,19.42
2022-08-20T05:59:24.344Z,19.43
2022-08-20T06:01:53.201Z,19.48
2022-08-20T06:04:26.827Z,19.59
2022-08-20T06:07:13.103Z,19.74
2022-08-20T06:09:44.395Z,19.77
2022-08-20T06:12:14.975Z,19.91
2022-08-20T06:14:41.742Z,19.90
2022-08-20T06:17:15.299Z,20.18
2022-08-20T06:19:46.851Z,20.46
2022-08-20T06:22:19.480Z,20.58
2022-08-20T06:24:49.730Z,20.48
2022-08-20T06:27:19.655Z,20.59
2022-08-20T06:29:47.492Z,20.68
2022-08-20T06:32:16.870Z,20.63
2022-08-20T06:34:50.256Z,20.81
2022-08-20T06:37:23.526Z,21.13
2022-08-20T06:40:03.310Z,21.19
2022-08-20T06:42:29.944Z,21.50
2022-08-20T06:44:56.503Z,21.70
2022-08-20T06:47:23.691Z,21.77
2022-08-20T06:49:50.685Z,21.97
2022-08-20T06:52:19.971Z,22.05
2022-08-20T06:54:56.554Z,22.06
2022-08-20T06:57:23.137Z,22.22
2022-08-20T06:59:54.184Z,24.06
2022-08-20T07:02:26.584Z,23.78
2022-08-20T07:04:57.032Z,23.08
2022-08-20T07:07:23.924Z,22.48
2022-08-20T07:10:01.799Z,22.63
2022-08-20T07:12:28.402Z,23.46
2022-08-20T07:14:57.318Z,25.20
2022-08-20T07:17:29.660Z,28.01
2022-08-20T07:19:56.248Z,28.27
2022-08-20T07:22:25.367Z,29.52
2022-08-20T07:24:52.351Z,27.18
2022-08-20T07:27:24.978Z,27.16
2022-08-20T07:30:15.078Z,29.27
2022-08-20T07:32:45.244Z,31.04
2022-08-20T07:35:22.282Z,31.31
2022-08-20T07:37:51.978Z,29.96
2022-08-20T07:40:27.509Z,29.86
2022-08-20T07:43:00.819Z,27.70
2022-08-20T07:45:31.207Z,26.52
2022-08-20T07:48:11.780Z,25.80
2022-08-20T07:50:39.271Z,25.11
2022-08-20T07:53:08.064Z,24.60
2022-08-20T07:55:34.963Z,24.01
2022-08-20T07:58:13.950Z,23.65
2022-08-20T08:00:40.890Z,23.19
2022-08-20T08:03:07.866Z,22.87
2022-08-20T08:05:38.177Z,22.84
2022-08-20T08:08:11.386Z,22.87
2022-08-20T08:10:42.399Z,22.92
2022-08-20T08:13:27.562Z,22.94
2022-08-20T08:16:01.570Z,23.16
2022-08-20T08:18:32.050Z,23.49
2022-08-20T08:20:59.794Z,22.96
2022-08-20T08:23:31.591Z,22.69
2022-08-20T08:26:01.347Z,22.73
2022-08-20T08:28:30.507Z,22.64
2022-08-20T08:30:57.421Z,22.91
2022-08-20T08:33:27.625Z,22.86
2022-08-20T08:36:04.418Z,22.83
2022-08-20T08:38:34.310Z,22.76
2022-08-20T08:41:14.044Z,22.59
2022-08-20T08:43:41.031Z,22.99
2022-08-20T08:46:10.963Z,23.32
2022-08-20T08:48:45.428Z,23.74
2022-08-20T08:51:16.243Z,24.67
2022-08-20T08:53:54.733Z,25.02
2022-08-20T08:56:26.843Z,24.62
2022-08-20T08:58:55.595Z,25.25
2022-08-20T09:01:53.750Z,26.45
2022-08-20T09:04:16.910Z,27.64
2022-08-20T09:06:53.488Z,27.96
2022-08-20T09:09:28.748Z,29.18
2022-08-20T09:12:04.282Z,28.71
2022-08-20T09:14:33.668Z,28.08
2022-08-20T09:17:00.244Z,28.48
2022-08-20T09:19:26.786Z,29.21
2022-08-20T09:21:53.398Z,30.12
2022-08-20T09:24:19.948Z,31.91
2022-08-20T09:26:46.551Z,30.70
2022-08-20T09:29:13.487Z,29.62
2022-08-20T09:31:41.558Z,28.73
2022-08-20T09:34:10.961Z,28.79
2022-08-20T09:36:37.522Z,28.95
2022-08-20T09:39:04.204Z,28.63
2022-08-20T09:41:34.663Z,28.69
2022-08-20T09:44:02.188Z,29.25
2022-08-20T09:46:28.806Z,30.60
2022-08-20T09:48:57.966Z,32.71
2022-08-20T09:51:24.598Z,31.63
2022-08-20T09:53:51.258Z,29.90
2022-08-20T09:56:18.294Z,28.98
2022-08-20T09:58:51.341Z,27.69
2022-08-20T10:01:20.331Z,26.78
2022-08-20T10:03:50.218Z,25.83
2022-08-20T10:06:20.721Z,26.01
2022-08-20T10:08:50.498Z,26.45
2022-08-20T10:11:19.527Z,26.85
2022-08-20T10:13:49.604Z,26.48
2022-08-20T10:16:18.427Z,26.36
2022-08-20T10:18:49.241Z,26.13
2022-08-20T10:21:20.752Z,25.85
2022-08-20T10:23:47.333Z,25.86
2022-08-20T10:26:15.017Z,25.73
2022-08-20T10:28:43.996Z,26.02
2022-08-20T10:31:12.086Z,25.95
2022-08-20T10:33:39.639Z,26.29
2022-08-20T10:36:20.050Z,26.71
2022-08-20T10:38:48.428Z,27.87
2022-08-20T10:41:14.953Z,27.93
2022-08-20T10:43:41.583Z,28.28
2022-08-20T10:46:09.082Z,27.94
2022-08-20T10:48:35.884Z,27.49
2022-08-20T10:51:05.057Z,27.40
2022-08-20T10:53:34.688Z,27.60
2022-08-20T10:56:03.758Z,27.71
2022-08-20T10:58:39.357Z,27.74
2022-08-20T11:01:09.444Z,27.07
2022-08-20T11:03:38.521Z,26.91
2022-08-20T11:06:05.335Z,27.12
2022-08-20T11:08:34.498Z,27.60
2022-08-20T11:11:04.481Z,27.86
2022-08-20T11:13:32.759Z,27.99
2022-08-20T11:16:02.758Z,28.25
2022-08-20T11:18:32.917Z,28.92
2022-08-20T11:21:02.098Z,28.92
2022-08-20T11:23:28.705Z,28.97
2022-08-20T11:26:01.678Z,29.33
2022-08-20T11:28:32.284Z,29.50
2022-08-20T11:31:00.291Z,29.54
2022-08-20T11:33:29.173Z,29.21
2022-08-20T11:35:55.886Z,29.76
2022-08-20T11:38:25.100Z,29.62
2022-08-20T11:40:54.052Z,29.76
2022-08-20T11:43:23.122Z,29.50
2022-08-20T11:45:56.079Z,29.63
2022-08-20T11:48:23.369Z,29.84
2022-08-20T11:50:52.827Z,29.86
2022-08-20T11:53:19.530Z,29.22
2022-08-20T11:55:48.696Z,27.62
2022-08-20T11:58:15.484Z,27.43
2022-08-20T12:00:44.170Z,27.47
2022-08-20T12:03:12.141Z,27.15
2022-08-20T12:05:45.005Z,27.54
2022-08-20T12:08:25.139Z,27.86
2022-08-20T12:10:57.485Z,27.83
2022-08-20T12:13:30.795Z,27.40
2022-08-20T12:16:17.658Z,26.67
2022-08-20T12:18:47.490Z,26.30
2022-08-20T12:21:17.645Z,26.00
2022-08-20T12:23:49.095Z,26.12
2022-08-20T12:26:22.550Z,26.26
2022-08-20T12:28:51.415Z,26.17
2022-08-20T12:31:17.991Z,26.07
2022-08-20T12:33:46.914Z,25.80
2022-08-20T12:36:16.022Z,25.77
2022-08-20T12:38:44.872Z,25.47
2022-08-20T12:41:13.756Z,25.28
2022-08-20T12:43:42.973Z,24.96
2022-08-20T12:46:09.524Z,25.17
2022-08-20T12:48:38.583Z,25.36
2022-08-20T12:51:05.154Z,25.45
2022-08-20T12:53:36.393Z,25.62
2022-08-20T12:56:05.365Z,25.39
2022-08-20T12:58:34.603Z,25.25
2022-08-20T13:01:06.074Z,25.62
2022-08-20T13:03:34.625Z,25.47
2022-08-20T13:06:16.188Z,25.54
2022-08-20T13:08:47.568Z,24.97
2022-08-20T13:11:16.396Z,25.13
2022-08-20T13:13:47.540Z,25.16
2022-08-20T13:16:19.036Z,25.44
2022-08-20T13:18:48.081Z,25.64
2022-08-20T13:21:23.793Z,25.74
2022-08-20T13:23:53.377Z,25.93
2022-08-20T13:26:22.116Z,26.43
2022-08-20T13:28:48.693Z,26.72
2022-08-20T13:31:15.234Z,26.82
2022-08-20T13:33:46.790Z,26.91
2022-08-20T13:36:13.459Z,27.11
2022-08-20T13:38:42.243Z,27.10
2022-08-20T13:41:08.859Z,27.21
2022-08-20T13:43:40.353Z,27.29
2022-08-20T13:46:09.078Z,26.97
2022-08-20T13:48:40.681Z,26.91
2022-08-20T13:51:09.765Z,26.93
2022-08-20T13:53:36.532Z,27.09
2022-08-20T13:56:04.010Z,27.25
2022-08-20T13:58:30.566Z,27.06
2022-08-20T14:01:00.758Z,27.19
2022-08-20T14:03:27.336Z,27.08
2022-08-20T14:05:56.950Z,27.30
2022-08-20T14:08:26.042Z,27.10
2022-08-20T14:10:55.080Z,27.29
2022-08-20T14:13:26.596Z,27.39
2022-08-20T14:15:54.232Z,27.29
2022-08-20T14:18:20.857Z,27.13
2022-08-20T14:20:50.192Z,26.95
2022-08-20T14:23:16.953Z,26.89
2022-08-20T14:25:50.019Z,26.83
2022-08-20T14:28:24.658Z,26.58
2022-08-20T14:30:53.949Z,26.57
2022-08-20T14:33:26.469Z,26.65
2022-08-20T14:35:55.663Z,26.57
2022-08-20T14:38:22.295Z,26.50
2022-08-20T14:40:50.232Z,26.38
2022-08-20T14:43:16.984Z,26.25
2022-08-20T14:45:43.511Z,26.33
2022-08-20T14:48:10.212Z,26.29
2022-08-20T14:50:37.490Z,25.89
2022-08-20T14:53:06.809Z,26.18
2022-08-20T14:55:37.294Z,26.51
2022-08-20T14:58:11.132Z,26.63
2022-08-20T15:00:41.043Z,26.81
2022-08-20T15:03:10.196Z,26.79
2022-08-20T15:05:39.661Z,26.67
2022-08-20T15:08:10.506Z,26.70
2022-08-20T15:10:41.330Z,26.55
2022-08-20T15:13:08.790Z,26.51
2022-08-20T15:15:35.399Z,26.54
2022-08-20T15:18:04.322Z,26.26
2022-08-20T15:20:34.917Z,26.25
2022-08-20T15:23:01.898Z,26.40
2022-08-20T15:25:36.631Z,26.41
2022-08-20T15:28:09.108Z,26.40
2022-08-20T15:30:40.454Z,25.95
2022-08-20T15:33:10.298Z,25.71
2022-08-20T15:35:37.008Z,25.45
2022-08-20T15:38:03.774Z,25.40
2022-08-20T15:40:32.338Z,25.21
2022-08-20T15:43:02.907Z,24.95
2022-08-20T15:45:29.455Z,24.74
2022-08-20T15:48:20.744Z,24.44
2022-08-20T15:50:47.215Z,24.47
2022-08-20T15:53:33.851Z,24.49
2022-08-20T15:56:16.365Z,24.46
2022-08-20T15:58:44.908Z,24.41
2022-08-20T16:01:43.842Z,24.46
2022-08-20T16:04:27.243Z,24.41
2022-08-20T16:07:02.643Z,24.30
2022-08-20T16:09:47.689Z,24.09
2022-08-20T16:12:32.508Z,24.14
2022-08-20T16:15:05.153Z,24.23
2022-08-20T16:17:45.914Z,24.09
2022-08-20T16:20:35.401Z,24.12
2022-08-20T16:23:04.899Z,24.23
2022-08-20T16:25:49.305Z,24.28
2022-08-20T16:28:23.891Z,24.18
2022-08-20T16:30:58.210Z,24.25
2022-08-20T16:33:50.517Z,24.21
2022-08-20T16:37:16.249Z,24.12
2022-08-20T16:39:54.671Z,23.97
2022-08-20T16:42:25.790Z,24.01
2022-08-20T16:44:54.831Z,24.04
2022-08-20T16:47:28.269Z,24.23
2022-08-20T16:50:06.794Z,24.32
2022-08-20T16:52:33.450Z,23.92
2022-08-20T16:55:00.039Z,23.76
2022-08-20T16:57:28.347Z,24.04
2022-08-20T17:00:15.771Z,24.16
2022-08-20T17:02:56.832Z,24.11
2022-08-20T17:05:27.623Z,24.00
2022-08-20T17:08:07.413Z,23.96
2022-08-20T17:10:40.464Z,24.08
2022-08-20T17:13:15.521Z,23.88
2022-08-20T17:15:55.166Z,23.95
2022-08-20T17:18:28.524Z,24.00
2022-08-20T17:21:01.729Z,23.96
2022-08-20T17:23:28.585Z,23.87
2022-08-20T17:25:59.129Z,23.48
2022-08-20T17:28:26.654Z,22.84
2022-08-20T17:30:56.279Z,22.64
2022-08-20T17:33:41.241Z,22.37
2022-08-20T17:36:24.082Z,22.41
2022-08-20T17:38:54.966Z,22.30
2022-08-20T17:41:28.121Z,22.06
2022-08-20T17:44:19.919Z,21.99
2022-08-20T17:46:49.622Z,22.04
2022-08-20T17:49:33.181Z,22.07
2022-08-20T17:52:04.041Z,22.17
2022-08-20T17:54:36.962Z,22.06
2022-08-20T17:57:09.953Z,21.80
2022-08-20T18:00:01.247Z,21.75
2022-08-20T18:02:32.292Z,21.87
2022-08-20T18:04:58.838Z,21.81
2022-08-20T18:07:35.882Z,21.87
2022-08-20T18:10:09.966Z,21.90
2022-08-20T18:12:39.516Z,21.84
2022-08-20T18:15:20.155Z,21.78
2022-08-20T18:18:03.493Z,21.71
2022-08-20T18:20:37.761Z,21.70
2022-08-20T18:23:12.327Z,21.71
2022-08-20T18:25:45.839Z,21.71
2022-08-20T18:28:18.346Z,21.72
2022-08-20T18:30:52.619Z,21.73
2022-08-20T18:33:33.584Z,21.80
2022-08-20T18:36:07.419Z,21.77
2022-08-20T18:38:37.335Z,21.72
2022-08-20T18:41:16.074Z,21.68
2022-08-20T18:43:50.044Z,21.48
2022-08-20T18:46:23.705Z,21.38
2022-08-20T18:49:01.983Z,21.34
2022-08-20T18:51:40.756Z,21.30
2022-08-20T18:54:07.733Z,21.27
2022-08-20T18:56:43.093Z,21.19
2022-08-20T18:59:15.092Z,21.17
2022-08-20T19:01:43.095Z,21.12
2022-08-20T19:04:26.700Z,21.06
2022-08-20T19:07:02.450Z,20.97
2022-08-20T19:09:50.789Z,20.90
2022-08-20T19:12:40.169Z,20.88
2022-08-20T19:15:18.730Z,20.79
2022-08-20T19:17:51.761Z,20.76
2022-08-20T19:20:26.593Z,20.68
2022-08-20T19:22:59.662Z,20.63
2022-08-20T19:25:31.325Z,20.58
2022-08-20T19:28:06.157Z,20.57
2022-08-20T19:30:38.785Z,20.54
2022-08-20T19:33:10.615Z,20.48
2022-08-20T19:35:41.561Z,20.40
2022-08-20T19:38:18.624Z,20.43
2022-08-20T19:40:46.073Z,20.42
2022-08-20T19:43:17.323Z,20.33
2022-08-20T19:45:56.684Z,20.29
2022-08-20T19:48:49.321Z,20.30
2022-08-20T19:51:53.437Z,20.36
2022-08-20T19:54:24.888Z,20.37
2022-08-20T19:56:57.466Z,20.22
2022-08-20T19:59:26.564Z,20.10
2022-08-20T20:02:01.586Z,20.25
2022-08-20T20:04:41.218Z,20.25
2022-08-20T20:07:29.057Z,20.19
2022-08-20T20:10:00.255Z,20.11
2022-08-20T20:12:33.360Z,20.18
2022-08-20T20:15:00.590Z,20.06
2022-08-20T20:17:31.562Z,20.05
2022-08-20T20:20:26.175Z,20.01
2022-08-20T20:22:55.422Z,20.03
2022-08-20T20:25:37.066Z,20.01
2022-08-20T20:28:21.744Z,20.08
2022-08-20T20:30:48.998Z,20.08
2022-08-20T20:33:24.387Z,20.16
2022-08-20T20:36:06.874Z,20.21
2022-08-20T20:38:37.935Z,20.09
2022-08-20T20:41:09.272Z,20.01
2022-08-20T20:43:42.069Z,19.93
2022-08-20T20:46:23.668Z,19.86
2022-08-20T20:48:52.815Z,19.89
2022-08-20T20:51:28.941Z,19.84
2022-08-20T20:54:01.790Z,19.81
2022-08-20T20:56:30.530Z,19.75
2022-08-20T20:58:57.088Z,19.60
2022-08-20T21:01:47.932Z,19.53
2022-08-20T21:04:32.504Z,19.47
2022-08-20T21:07:22.103Z,19.31
2022-08-20T21:10:09.127Z,19.41
2022-08-20T21:12:59.403Z,19.52
2022-08-20T21:15:46.486Z,19.55
2022-08-20T21:18:36.880Z,19.57
2022-08-20T21:21:28.400Z,19.56
2022-08-20T21:24:15.374Z,19.55
2022-08-20T21:27:03.894Z,19.50
2022-08-20T21:29:51.189Z,19.51
2022-08-20T21:32:40.350Z,19.54
2022-08-20T21:35:27.670Z,19.45
2022-08-20T21:38:15.281Z,19.45
2022-08-20T21:41:04.306Z,19.32
2022-08-20T21:43:55.126Z,19.26
2022-08-20T21:46:45.368Z,19.05
2022-08-20T21:49:34.772Z,19.05
2022-08-20T21:52:24.178Z,19.05
2022-08-20T21:55:14.565Z,18.97
2022-08-20T21:58:04.376Z,19.00
2022-08-20T22:00:56.632Z,19.06
2022-08-20T22:03:43.571Z,18.93
2022-08-20T22:06:31.246Z,18.95
2022-08-20T22:09:18.793Z,19.07
2022-08-20T22:12:10.151Z,19.05
2022-08-20T22:14:57.205Z,18.97
2022-08-20T22:17:44.087Z,18.93
2022-08-20T22:20:31.138Z,19.02
2022-08-20T22:23:20.485Z,19.03
2022-08-20T22:26:08.483Z,19.00
2022-08-20T22:28:55.776Z,19.03
2022-08-20T22:31:43.350Z,19.05
2022-08-20T22:34:33.578Z,18.91
2022-08-20T22:37:20.741Z,18.72
2022-08-20T22:40:08.318Z,18.58
2022-08-20T22:42:55.446Z,18.49
2022-08-20T22:45:46.309Z,18.44
2022-08-20T22:48:33.290Z,18.42
2022-08-20T22:51:29.015Z,18.39
2022-08-20T22:54:22.478Z,18.36
2022-08-20T22:57:09.468Z,18.32
2022-08-20T22:59:57.727Z,18.21
2022-08-20T23:02:50.565Z,18.18
2022-08-20T23:05:38.220Z,18.16
2022-08-20T23:08:25.292Z,18.12
2022-08-20T23:11:14.135Z,18.14
2022-08-20T23:14:01.058Z,18.13
2022-08-20T23:16:56.074Z,18.15
2022-08-20T23:19:46.009Z,18.04
2022-08-20T23:22:32.992Z,18.09
2022-08-20T23:25:20.085Z,18.10
2022-08-20T23:28:07.287Z,17.98
2022-08-20T23:30:54.317Z,17.98
2022-08-20T23:33:44.678Z,17.99
2022-08-20T23:36:32.105Z,17.96
2022-08-20T23:39:19.569Z,17.80
2022-08-20T23:42:06.520Z,17.83
2022-08-20T23:44:53.421Z,17.71
2022-08-20T23:47:40.794Z,17.72
2022-08-20T23:50:30.289Z,17.74
2022-08-20T23:53:17.173Z,17.71
2022-08-20T23:56:05.001Z,17.77
2022-08-20T23:58:51.990Z,17.64
